createdAt,value
2023-07-08T00:01:03.268Z,20.30
2023-07-08T00:03:51.355Z,20.30
2023-07-08T00:06:38.832Z,20.30
2023-07-08T00:09:26.457Z,20.20
2023-07-08T00:12:15.324Z,20.20
2023-07-08T00:15:03.136Z,20.20
2023-07-08T00:17:54.293Z,20.20
2023-07-08T00:20:48.165Z,20.10
2023-07-08T00:23:37.393Z,20.20
2023-07-08T00:26:29.690Z,20.10
2023-07-08T00:29:18.669Z,20.10
2023-07-08T00:32:15.179Z,20.10
2023-07-08T00:35:02.222Z,20.20
2023-07-08T00:37:49.310Z,20.10
2023-07-08T00:40:37.149Z,20.00
2023-07-08T00:43:32.954Z,20.10
2023-07-08T00:46:43.914Z,20.00
2023-07-08T00:49:39.696Z,20.00
2023-07-08T00:52:30.027Z,20.00
2023-07-08T00:55:20.537Z,20.00
2023-07-08T00:58:09.498Z,20.00
2023-07-08T01:01:00.027Z,20.00
2023-07-08T01:03:57.203Z,20.00
2023-07-08T01:06:54.141Z,20.00
2023-07-08T01:09:48.090Z,19.90
2023-07-08T01:12:41.941Z,19.90
2023-07-08T01:15:36.240Z,19.90
2023-07-08T01:18:26.251Z,19.90
2023-07-08T01:21:36.644Z,19.80
2023-07-08T01:24:26.352Z,19.80
2023-07-08T01:27:15.378Z,19.80
2023-07-08T01:30:04.281Z,19.80
2023-07-08T01:32:54.120Z,19.70
2023-07-08T01:35:44.546Z,19.70
2023-07-08T01:38:33.449Z,19.70
2023-07-08T01:41:22.700Z,19.70
2023-07-08T01:44:27.650Z,19.70
2023-07-08T01:47:22.519Z,19.60
2023-07-08T01:50:10.246Z,19.60
2023-07-08T01:53:07.479Z,19.60
2023-07-08T01:55:57.845Z,19.60
2023-07-08T01:58:49.192Z,19.50
2023-07-08T02:01:35.916Z,19.50
2023-07-08T02:04:26.018Z,19.40
2023-07-08T02:07:18.626Z,19.40
2023-07-08T02:10:06.410Z,19.40
2023-07-08T02:12:53.662Z,19.30
2023-07-08T02:15:45.058Z,19.30
2023-07-08T02:18:34.304Z,19.30
2023-07-08T02:21:21.838Z,19.30
2023-07-08T02:24:09.628Z,19.20
2023-07-08T02:27:01.405Z,19.10
2023-07-08T02:29:48.258Z,19.00
2023-07-08T02:32:40.378Z,19.00
2023-07-08T02:35:30.275Z,19.00
2023-07-08T02:38:18.931Z,18.90
2023-07-08T02:41:05.584Z,18.90
2023-07-08T02:43:52.960Z,18.90
2023-07-08T02:46:40.420Z,18.90
2023-07-08T02:49:33.983Z,18.90
2023-07-08T02:52:21.503Z,18.90
2023-07-08T02:55:10.371Z,18.80
2023-07-08T02:58:03.705Z,18.70
2023-07-08T03:00:56.038Z,18.60
2023-07-08T03:03:44.849Z,18.60
2023-07-08T03:06:34.484Z,18.50
2023-07-08T03:09:24.139Z,18.50
2023-07-08T03:12:13.525Z,18.60
2023-07-08T03:15:01.979Z,18.50
2023-07-08T03:17:49.230Z,18.40
2023-07-08T03:20:37.888Z,18.40
2023-07-08T03:23:28.983Z,18.30
2023-07-08T03:26:20.067Z,18.20
2023-07-08T03:29:15.544Z,18.20
2023-07-08T03:32:03.733Z,18.10
2023-07-08T03:34:53.661Z,18.10
2023-07-08T03:37:40.683Z,18.10
2023-07-08T03:40:28.782Z,18.10
2023-07-08T03:43:17.103Z,18.10
2023-07-08T03:46:04.472Z,18.20
2023-07-08T03:48:53.842Z,18.20
2023-07-08T03:51:48.516Z,18.30
2023-07-08T03:54:37.458Z,18.30
2023-07-08T03:57:26.822Z,18.50
2023-07-08T04:00:17.661Z,18.50
2023-07-08T04:03:10.091Z,18.60
2023-07-08T04:05:58.298Z,18.60
2023-07-08T04:08:45.660Z,18.80
2023-07-08T04:11:36.785Z,18.80
2023-07-08T04:14:25.979Z,18.90
2023-07-08T04:17:17.031Z,19.00
2023-07-08T04:20:05.379Z,19.10
2023-07-08T04:22:55.511Z,19.10
2023-07-08T04:25:43.130Z,19.40
2023-07-08T04:28:38.199Z,19.70
2023-07-08T04:31:28.937Z,19.90
2023-07-08T04:34:19.322Z,20.20
2023-07-08T04:37:10.969Z,20.50
2023-07-08T04:39:57.835Z,20.80
2023-07-08T04:42:46.548Z,21.00
2023-07-08T04:45:33.012Z,21.10
2023-07-08T04:48:23.609Z,21.40
2023-07-08T04:51:12.625Z,21.70
2023-07-08T04:54:07.292Z,22.20
2023-07-08T04:56:57.185Z,22.40
2023-07-08T04:59:45.012Z,22.70
2023-07-08T05:05:22.732Z,23.20
2023-07-08T05:08:10.029Z,23.50
2023-07-08T05:10:59.613Z,23.70
2023-07-08T05:13:47.769Z,24.10
2023-07-08T05:16:37.106Z,24.30
2023-07-08T05:22:14.816Z,25.10
2023-07-08T05:25:05.028Z,25.60
2023-07-08T05:30:43.243Z,26.10
2023-07-08T05:33:33.269Z,26.40
2023-07-08T05:36:21.339Z,26.90
2023-07-08T05:39:14.390Z,27.70
2023-07-08T05:42:02.025Z,28.10
2023-07-08T05:47:43.597Z,29.80
2023-07-08T05:53:27.578Z,32.30
2023-07-08T05:56:16.562Z,33.00
2023-07-08T05:59:06.496Z,33.70
2023-07-08T06:01:58.109Z,33.90
2023-07-08T06:04:51.333Z,34.30
2023-07-08T06:07:38.800Z,34.90
2023-07-08T06:10:27.326Z,35.00
2023-07-08T06:13:18.790Z,35.00
2023-07-08T06:16:08.083Z,35.20
2023-07-08T06:24:34.159Z,36.70
2023-07-08T06:27:22.884Z,36.90
2023-07-08T06:30:16.224Z,37.20
2023-07-08T06:33:09.433Z,37.00
2023-07-08T06:35:56.906Z,36.80
2023-07-08T06:38:43.458Z,36.60
2023-07-08T06:41:36.599Z,36.80
2023-07-08T06:44:23.965Z,36.70
2023-07-08T06:47:17.951Z,36.60
2023-07-08T06:50:08.268Z,36.60
2023-07-08T06:52:55.860Z,36.90
2023-07-08T06:55:47.210Z,37.40
2023-07-08T06:58:36.643Z,37.30
2023-07-08T07:04:17.514Z,38.40
2023-07-08T07:07:05.365Z,38.00
2023-07-08T07:09:59.357Z,37.70
2023-07-08T07:12:48.143Z,37.30
2023-07-08T07:18:26.367Z,35.20
2023-07-08T07:21:14.512Z,34.70
2023-07-08T07:24:03.109Z,34.50
2023-07-08T07:29:45.103Z,32.90
2023-07-08T07:32:39.005Z,32.20
2023-07-08T07:35:27.810Z,32.30
2023-07-08T07:38:18.981Z,32.70
2023-07-08T07:41:07.471Z,33.20
2023-07-08T07:43:55.461Z,33.30
2023-07-08T07:46:45.975Z,33.70
2023-07-08T07:49:33.323Z,33.70
2023-07-08T07:52:25.315Z,33.20
2023-07-08T07:55:14.621Z,32.90
2023-07-08T07:58:02.890Z,33.10
2023-07-08T08:00:53.620Z,32.90
2023-07-08T08:03:41.348Z,33.10
2023-07-08T08:06:28.955Z,33.00
2023-07-08T08:09:17.366Z,32.70
2023-07-08T08:12:06.760Z,32.50
2023-07-08T08:14:53.637Z,33.10
2023-07-08T08:17:41.055Z,33.90
2023-07-08T08:20:28.718Z,34.30
2023-07-08T08:23:16.262Z,34.30
2023-07-08T08:26:03.532Z,34.40
2023-07-08T08:28:52.154Z,34.90
2023-07-08T08:31:40.949Z,34.90
2023-07-08T08:34:28.354Z,34.60
2023-07-08T08:37:16.558Z,34.70
2023-07-08T08:40:03.553Z,34.60
2023-07-08T08:42:56.002Z,34.10
2023-07-08T08:45:53.814Z,33.70
2023-07-08T08:48:46.616Z,33.20
2023-07-08T08:51:36.029Z,32.80
2023-07-08T08:54:23.379Z,32.80
2023-07-08T08:57:32.692Z,32.80
2023-07-08T09:00:29.286Z,33.30
2023-07-08T09:03:20.807Z,34.10
2023-07-08T09:06:21.492Z,34.30
2023-07-08T09:09:20.813Z,34.40
2023-07-08T09:12:18.922Z,34.30
2023-07-08T09:15:15.375Z,34.10
2023-07-08T09:18:22.399Z,34.30
2023-07-08T09:21:22.608Z,34.90
2023-07-08T09:24:18.739Z,34.90
2023-07-08T09:27:06.751Z,34.80
2023-07-08T09:29:58.805Z,34.90
2023-07-08T09:32:48.018Z,35.10
2023-07-08T09:35:42.845Z,35.10
2023-07-08T09:38:36.387Z,35.30
2023-07-08T09:41:32.758Z,35.10
2023-07-08T09:44:27.876Z,35.10
2023-07-08T09:50:22.779Z,34.40
2023-07-08T09:53:15.956Z,34.40
2023-07-08T09:56:13.900Z,34.40
2023-07-08T09:59:01.399Z,34.60
2023-07-08T10:01:49.559Z,34.50
2023-07-08T10:04:37.060Z,34.40
2023-07-08T10:07:28.465Z,34.50
2023-07-08T10:10:19.861Z,34.40
2023-07-08T10:13:20.020Z,34.70
2023-07-08T10:16:18.571Z,34.60
2023-07-08T10:22:13.716Z,34.00
2023-07-08T10:25:14.714Z,34.00
2023-07-08T10:28:27.162Z,34.50
2023-07-08T10:31:24.236Z,34.30
2023-07-08T10:34:33.931Z,34.10
2023-07-08T10:37:29.112Z,34.10
2023-07-08T10:40:36.581Z,33.80
2023-07-08T10:43:41.249Z,33.80
2023-07-08T10:52:53.777Z,33.00
2023-07-08T10:55:49.591Z,32.90
2023-07-08T10:58:55.016Z,32.60
2023-07-08T11:01:51.912Z,32.50
2023-07-08T11:04:58.319Z,32.20
2023-07-08T11:07:56.586Z,31.90
2023-07-08T11:11:13.879Z,31.90
2023-07-08T11:14:17.428Z,32.00
2023-07-08T11:17:18.397Z,31.90
2023-07-08T11:20:19.095Z,31.80
2023-07-08T11:23:14.331Z,31.70
2023-07-08T11:26:27.189Z,31.50
2023-07-08T11:29:22.660Z,31.30
2023-07-08T11:32:17.025Z,31.20
2023-07-08T11:35:21.862Z,31.10
2023-07-08T11:38:14.273Z,31.20
2023-07-08T11:41:06.212Z,31.30
2023-07-08T11:44:00.174Z,31.20
2023-07-08T11:47:00.375Z,31.20
2023-07-08T11:49:52.412Z,31.10
2023-07-08T11:52:41.428Z,31.20
2023-07-08T11:55:38.666Z,31.20
2023-07-08T11:58:34.382Z,31.30
2023-07-08T12:01:31.280Z,31.30
2023-07-08T12:04:27.915Z,31.30
2023-07-08T12:07:25.393Z,31.20
2023-07-08T12:10:17.899Z,31.00
2023-07-08T12:13:08.360Z,31.00
2023-07-08T12:16:01.703Z,31.10
2023-07-08T12:18:53.133Z,31.10
2023-07-08T12:21:56.229Z,31.10
2023-07-08T12:24:45.099Z,31.10
2023-07-08T12:30:26.079Z,30.70
2023-07-08T12:33:16.067Z,30.80
2023-07-08T12:36:05.125Z,30.80
2023-07-08T12:38:54.391Z,30.70
2023-07-08T12:41:49.771Z,30.70
2023-07-08T12:44:38.738Z,30.80
2023-07-08T12:47:25.904Z,30.70
2023-07-08T12:50:16.188Z,30.60
2023-07-08T12:53:05.943Z,30.60
2023-07-08T12:56:10.318Z,30.60
2023-07-08T12:59:04.134Z,30.70
2023-07-08T13:01:58.723Z,30.70
2023-07-08T13:04:48.576Z,30.60
2023-07-08T13:07:40.510Z,30.60
2023-07-08T13:10:32.845Z,30.60
2023-07-08T13:13:29.001Z,30.60
2023-07-08T13:16:18.026Z,30.70
2023-07-08T13:19:06.478Z,30.70
2023-07-08T13:21:54.201Z,30.60
2023-07-08T13:24:42.100Z,30.60
2023-07-08T13:27:31.289Z,30.70
2023-07-08T13:30:24.953Z,30.70
2023-07-08T13:33:18.732Z,30.60
2023-07-08T13:36:07.736Z,30.60
2023-07-08T13:38:55.220Z,30.60
2023-07-08T13:41:46.641Z,30.50
2023-07-08T13:44:35.864Z,30.40
2023-07-08T13:47:36.340Z,30.30
2023-07-08T13:50:34.704Z,30.30
2023-07-08T13:53:26.183Z,30.30
2023-07-08T13:56:22.185Z,30.40
2023-07-08T13:59:15.795Z,30.60
2023-07-08T14:02:03.935Z,30.60
2023-07-08T14:04:55.728Z,30.60
2023-07-08T14:07:47.885Z,30.60
2023-07-08T14:10:34.913Z,30.40
2023-07-08T14:13:24.022Z,30.50
2023-07-08T14:16:30.127Z,30.60
2023-07-08T14:19:21.542Z,30.60
2023-07-08T14:22:25.838Z,30.60
2023-07-08T14:25:17.423Z,30.40
2023-07-08T14:28:07.101Z,30.40
2023-07-08T14:30:55.184Z,30.50
2023-07-08T14:33:42.304Z,30.50
2023-07-08T14:36:30.405Z,30.30
2023-07-08T14:39:21.019Z,30.40
2023-07-08T14:42:15.036Z,30.50
2023-07-08T14:45:02.916Z,30.40
2023-07-08T14:47:51.573Z,30.30
2023-07-08T14:50:39.763Z,30.10
2023-07-08T14:53:27.992Z,30.30
2023-07-08T14:56:24.499Z,30.30
2023-07-08T14:59:17.849Z,30.40
2023-07-08T15:02:22.238Z,30.30
2023-07-08T15:05:18.233Z,30.30
2023-07-08T15:08:06.504Z,30.30
2023-07-08T15:10:54.733Z,30.20
2023-07-08T15:13:46.771Z,30.30
2023-07-08T15:16:34.671Z,30.40
2023-07-08T15:19:23.812Z,30.30
2023-07-08T15:22:14.014Z,30.30
2023-07-08T15:25:03.309Z,30.40
2023-07-08T15:27:52.555Z,30.40
2023-07-08T15:30:42.054Z,30.40
2023-07-08T15:33:30.250Z,30.40
2023-07-08T15:36:18.912Z,30.30
2023-07-08T15:39:09.229Z,30.30
2023-07-08T15:42:01.724Z,30.20
2023-07-08T15:44:53.566Z,30.10
2023-07-08T15:47:45.605Z,30.00
2023-07-08T15:50:34.222Z,29.90
2023-07-08T15:53:22.748Z,30.10
2023-07-08T15:56:17.305Z,30.20
2023-07-08T15:59:10.978Z,30.30
2023-07-08T16:02:04.430Z,30.10
2023-07-08T16:04:53.840Z,30.10
2023-07-08T16:07:41.418Z,30.10
2023-07-08T16:10:34.368Z,30.00
2023-07-08T16:13:28.274Z,30.10
2023-07-08T16:16:19.603Z,30.20
2023-07-08T16:19:09.917Z,30.20
2023-07-08T16:22:00.410Z,30.20
2023-07-08T16:25:03.296Z,30.10
2023-07-08T16:27:54.429Z,30.00
2023-07-08T16:30:47.059Z,30.00
2023-07-08T16:33:39.557Z,30.00
2023-07-08T16:36:32.409Z,30.00
2023-07-08T16:39:25.668Z,30.00
2023-07-08T16:42:18.215Z,30.20
2023-07-08T16:45:15.849Z,30.10
2023-07-08T16:48:03.056Z,30.00
2023-07-08T16:50:50.009Z,29.90
2023-07-08T16:53:37.277Z,29.80
2023-07-08T16:56:25.919Z,29.70
2023-07-08T16:59:15.622Z,29.90
2023-07-08T17:02:06.303Z,30.20
2023-07-08T17:04:56.061Z,30.30
2023-07-08T17:07:43.502Z,30.40
2023-07-08T17:10:33.536Z,30.30
2023-07-08T17:13:22.246Z,30.20
2023-07-08T17:16:17.215Z,30.30
2023-07-08T17:19:05.691Z,30.40
2023-07-08T17:21:52.299Z,30.40
2023-07-08T17:24:40.033Z,30.30
2023-07-08T17:27:31.752Z,30.30
2023-07-08T17:30:25.354Z,30.30
2023-07-08T17:33:15.997Z,30.20
2023-07-08T17:36:12.190Z,30.30
2023-07-08T17:39:04.472Z,30.20
2023-07-08T17:41:55.209Z,30.00
2023-07-08T17:44:46.096Z,30.00
2023-07-08T17:47:34.776Z,29.90
2023-07-08T17:50:25.196Z,29.80
2023-07-08T17:53:17.117Z,29.80
2023-07-08T17:56:09.220Z,29.80
2023-07-08T17:59:01.773Z,29.90
2023-07-08T18:01:52.440Z,29.90
2023-07-08T18:04:40.830Z,29.80
2023-07-08T18:07:29.687Z,29.80
2023-07-08T18:10:21.611Z,29.70
2023-07-08T18:13:20.784Z,29.70
2023-07-08T18:16:15.527Z,29.70
2023-07-08T18:19:06.962Z,29.60
2023-07-08T18:22:11.700Z,29.50
2023-07-08T18:25:02.371Z,29.50
2023-07-08T18:27:51.265Z,29.50
2023-07-08T18:30:39.430Z,29.40
2023-07-08T18:33:28.504Z,29.30
2023-07-08T18:36:18.708Z,29.30
2023-07-08T18:39:08.812Z,29.30
2023-07-08T18:41:57.032Z,29.30
2023-07-08T18:44:45.356Z,29.20
2023-07-08T18:47:38.034Z,29.20
2023-07-08T18:50:26.066Z,29.10
2023-07-08T18:53:16.609Z,29.10
2023-07-08T18:56:06.581Z,29.00
2023-07-08T18:58:54.275Z,29.00
2023-07-08T19:01:45.338Z,29.00
2023-07-08T19:04:39.639Z,28.90
2023-07-08T19:07:30.861Z,28.80
2023-07-08T19:10:20.986Z,28.70
2023-07-08T19:16:15.441Z,28.50
2023-07-08T19:19:04.000Z,28.40
2023-07-08T19:21:52.861Z,28.30
2023-07-08T19:24:39.513Z,28.30
2023-07-08T19:27:28.552Z,28.20
2023-07-08T19:30:19.498Z,28.10
2023-07-08T19:33:09.338Z,28.10
2023-07-08T19:36:01.357Z,27.90
2023-07-08T19:38:51.066Z,27.90
2023-07-08T19:41:39.327Z,27.80
2023-07-08T19:44:30.127Z,27.70
2023-07-08T19:47:19.267Z,27.60
2023-07-08T19:50:11.744Z,27.60
2023-07-08T19:53:01.266Z,27.50
2023-07-08T19:55:48.555Z,27.40
2023-07-08T19:58:35.820Z,27.40
2023-07-08T20:01:24.143Z,27.20
2023-07-08T20:04:18.586Z,27.20
2023-07-08T20:07:10.828Z,27.10
2023-07-08T20:09:58.337Z,27.00
2023-07-08T20:12:52.566Z,26.90
2023-07-08T20:15:54.479Z,26.90
2023-07-08T20:18:46.795Z,26.90
2023-07-08T20:21:53.836Z,26.70
2023-07-08T20:24:41.340Z,26.70
2023-07-08T20:27:31.772Z,26.60
2023-07-08T20:30:23.029Z,26.60
2023-07-08T20:33:14.865Z,26.60
2023-07-08T20:36:06.873Z,26.40
2023-07-08T20:39:00.787Z,26.40
2023-07-08T20:42:00.276Z,26.30
2023-07-08T20:44:47.694Z,26.30
2023-07-08T20:47:35.128Z,26.20
2023-07-08T20:50:24.702Z,26.20
2023-07-08T20:53:15.549Z,26.10
2023-07-08T20:56:05.954Z,26.10
2023-07-08T20:58:57.139Z,26.10
2023-07-08T21:01:46.128Z,26.10
2023-07-08T21:04:35.799Z,26.00
2023-07-08T21:07:23.139Z,26.00
2023-07-08T21:10:20.117Z,25.90
2023-07-08T21:13:11.267Z,25.90
2023-07-08T21:15:59.895Z,25.70
2023-07-08T21:18:48.674Z,25.70
2023-07-08T21:21:36.357Z,25.70
2023-07-08T21:24:31.073Z,25.60
2023-07-08T21:27:26.135Z,25.50
2023-07-08T21:30:21.584Z,25.40
2023-07-08T21:33:11.250Z,25.30
2023-07-08T21:36:01.682Z,25.10
2023-07-08T21:38:49.231Z,25.10
2023-07-08T21:41:36.521Z,25.10
2023-07-08T21:44:23.795Z,25.10
2023-07-08T21:47:11.925Z,25.00
2023-07-08T21:49:59.280Z,24.90
2023-07-08T21:52:48.346Z,24.80
2023-07-08T21:55:55.050Z,24.80
2023-07-08T21:58:42.913Z,24.80
2023-07-08T22:01:37.032Z,24.80
2023-07-08T22:04:26.499Z,24.70
2023-07-08T22:07:24.205Z,24.60
2023-07-08T22:10:20.067Z,24.70
2023-07-08T22:13:07.567Z,24.70
2023-07-08T22:15:56.584Z,24.70
2023-07-08T22:18:46.004Z,24.60
2023-07-08T22:21:40.611Z,24.60
2023-07-08T22:24:37.115Z,24.60
2023-07-08T22:27:28.398Z,24.50
2023-07-08T22:30:18.292Z,24.50
2023-07-08T22:33:10.845Z,24.50
2023-07-08T22:35:59.066Z,24.40
2023-07-08T22:39:03.868Z,24.30
2023-07-08T22:41:55.896Z,24.20
2023-07-08T22:44:46.149Z,24.20
2023-07-08T22:47:39.901Z,24.10
2023-07-08T22:50:31.333Z,24.00
2023-07-08T22:53:22.478Z,23.90
2023-07-08T22:56:18.633Z,23.90
2023-07-08T22:59:05.888Z,23.80
2023-07-08T23:01:55.536Z,23.80
2023-07-08T23:04:42.643Z,23.70
2023-07-08T23:07:29.909Z,23.60
2023-07-08T23:10:19.237Z,23.60
2023-07-08T23:13:18.003Z,23.50
2023-07-08T23:16:15.079Z,23.40
2023-07-08T23:19:03.393Z,23.40
2023-07-08T23:21:52.141Z,23.30
2023-07-08T23:24:39.492Z,23.20
2023-07-08T23:27:27.288Z,23.30
2023-07-08T23:30:20.666Z,23.30
2023-07-08T23:33:08.308Z,23.20
2023-07-08T23:35:58.038Z,23.10
2023-07-08T23:38:50.429Z,23.10
2023-07-08T23:41:51.836Z,23.10
2023-07-08T23:44:39.296Z,23.10
2023-07-08T23:47:29.156Z,23.10
2023-07-08T23:50:21.978Z,23.00
2023-07-08T23:53:11.457Z,22.90
2023-07-08T23:55:59.569Z,22.90
2023-07-08T23:58:47.328Z,22.80
